Time;durP1;ratioP1;P1;durP2;ratioP2;P2;SDS_P1;SDS_P2;PMS_P1;PMS_P2;Temp;Humidity;BMP_temperature;BMP_pressure;BME280_temperature;BME280_humidity;BME280_pressure;Samples;Min_cycle;Max_cycle;Signal;HPM_P1;HPM_P2
2022/03/13 00:00:34;;;;;;;26.75;13.60;;;7.10;92.40;;;;;;5039638;28;20021;-80
2022/03/13 00:03:04;;;;;;;20.17;12.68;;;7.00;92.50;;;;;;5050342;28;20058;-79
2022/03/13 00:05:32;;;;;;;20.27;11.85;;;7.00;92.70;;;;;;5030683;28;20032;-81
2022/03/13 00:07:57;;;;;;;20.07;12.17;;;7.00;92.50;;;;;;5052312;28;20054;-80
2022/03/13 00:10:27;;;;;;;19.10;11.23;;;6.90;92.70;;;;;;5043388;28;20039;-81
2022/03/13 00:12:54;;;;;;;19.55;11.82;;;6.90;92.70;;;;;;5050328;28;20060;-79
2022/03/13 00:15:35;;;;;;;19.73;12.55;;;6.90;92.70;;;;;;5027191;28;20102;-80
2022/03/13 00:18:01;;;;;;;23.52;12.65;;;6.90;92.80;;;;;;5027766;28;20057;-79
2022/03/13 00:20:27;;;;;;;22.20;12.93;;;6.80;92.70;;;;;;5053943;28;20029;-79
2022/03/13 00:22:57;;;;;;;24.70;13.35;;;6.80;92.70;;;;;;5025978;28;20040;-79
2022/03/13 00:25:25;;;;;;;21.05;13.38;;;6.80;92.80;;;;;;5060304;28;20040;-80
2022/03/13 00:27:51;;;;;;;23.93;13.57;;;7.10;93.10;;;;;;5057463;28;20025;-80
2022/03/13 00:30:16;;;;;;;21.50;12.13;;;6.90;93.10;;;;;;5043276;28;20273;-81
2022/03/13 00:32:42;;;;;;;20.15;13.35;;;6.70;93.20;;;;;;5038806;28;20033;-81
2022/03/13 00:35:08;;;;;;;25.92;13.15;;;6.70;93.30;;;;;;5054985;28;20056;-79
2022/03/13 00:37:33;;;;;;;20.65;13.10;;;6.60;93.60;;;;;;5045278;28;20041;-79
2022/03/13 00:40:00;;;;;;;24.17;13.15;;;6.60;93.50;;;;;;5046770;28;20064;-80
2022/03/13 00:42:26;;;;;;;23.73;13.02;;;7.10;93.70;;;;;;5041994;28;20041;-82
2022/03/13 00:44:51;;;;;;;22.02;12.38;;;6.60;93.70;;;;;;5059625;28;20041;-80
2022/03/13 00:47:19;;;;;;;20.65;12.80;;;6.50;93.60;;;;;;5058329;28;20089;-80
2022/03/13 00:49:46;;;;;;;22.92;12.38;;;6.50;93.80;;;;;;5059784;28;20034;-78
2022/03/13 00:52:11;;;;;;;21.45;12.30;;;6.50;94.00;;;;;;5025326;28;20103;-80
2022/03/13 00:54:37;;;;;;;25.90;13.13;;;6.40;94.10;;;;;;5030731;28;20065;-80
2022/03/13 00:57:03;;;;;;;19.88;13.40;;;6.40;93.90;;;;;;5027471;28;20048;-80
2022/03/13 00:59:29;;;;;;;21.92;13.02;;;6.40;94.10;;;;;;5034131;28;20041;-80
2022/03/13 01:01:54;;;;;;;20.77;13.05;;;6.40;94.20;;;;;;5049092;28;20049;-79
2022/03/13 01:04:20;;;;;;;20.77;12.30;;;6.40;94.30;;;;;;5056103;28;20026;-81
2022/03/13 01:06:46;;;;;;;20.95;12.60;;;6.40;94.30;;;;;;5042870;28;20053;-80
2022/03/13 01:09:12;;;;;;;21.98;13.38;;;6.40;94.20;;;;;;5041913;28;20076;-81
2022/03/13 01:11:38;;;;;;;21.58;13.60;;;6.40;94.40;;;;;;5053284;28;20038;-81
2022/03/13 01:14:04;;;;;;;21.52;13.57;;;6.40;94.30;;;;;;5054357;28;20048;-81
2022/03/13 01:16:36;;;;;;;19.75;12.77;;;6.40;94.50;;;;;;5047710;28;20038;-80
2022/03/13 01:19:02;;;;;;;24.23;13.98;;;6.40;94.40;;;;;;5035886;28;20037;-81
2022/03/13 01:21:30;;;;;;;20.35;13.45;;;6.40;94.40;;;;;;5043761;28;20053;-79
2022/03/13 01:24:17;;;;;;;25.58;12.90;;;6.40;94.50;;;;;;5049621;28;20018;-79
2022/03/13 01:26:43;;;;;;;23.17;13.23;;;6.40;94.50;;;;;;5044962;28;20021;-80
2022/03/13 01:29:14;;;;;;;23.02;12.65;;;6.40;94.40;;;;;;5046386;28;20064;-80
2022/03/13 01:31:48;;;;;;;17.42;12.38;;;6.40;94.40;;;;;;5031566;28;20037;-80
2022/03/13 01:34:38;;;;;;;19.55;13.45;;;6.50;94.40;;;;;;5047639;28;20029;-80
2022/03/13 01:37:10;;;;;;;24.98;13.73;;;6.50;94.50;;;;;;5037645;28;20059;-79
2022/03/13 01:39:36;;;;;;;21.90;12.52;;;6.50;94.30;;;;;;5038913;28;20125;-80
2022/03/13 01:42:02;;;;;;;18.13;11.98;;;6.50;94.30;;;;;;5038316;28;20086;-80
2022/03/13 01:44:28;;;;;;;21.45;12.98;;;6.50;94.30;;;;;;5048776;28;20061;-80
2022/03/13 01:46:55;;;;;;;20.33;12.10;;;6.60;94.30;;;;;;5044754;28;20018;-81
2022/03/13 01:49:21;;;;;;;20.60;13.13;;;6.60;94.20;;;;;;5053979;28;20030;-80
2022/03/13 01:51:46;;;;;;;23.08;13.00;;;6.60;94.20;;;;;;5044527;28;20041;-80
2022/03/13 01:54:13;;;;;;;20.27;12.38;;;6.60;94.30;;;;;;5037672;28;20076;-80
2022/03/13 01:56:40;;;;;;;27.50;13.68;;;6.60;94.30;;;;;;5046674;28;20033;-80
2022/03/13 01:59:08;;;;;;;24.17;13.43;;;6.60;94.50;;;;;;5044230;28;20052;-81
2022/03/13 02:01:35;;;;;;;20.88;12.60;;;6.60;94.40;;;;;;5033906;28;20028;-81
2022/03/13 02:04:00;;;;;;;23.45;12.93;;;6.50;94.40;;;;;;5010955;28;20112;-80
2022/03/13 02:06:26;;;;;;;23.05;13.45;;;6.50;94.50;;;;;;5029217;28;20088;-80
2022/03/13 02:08:54;;;;;;;21.60;13.40;;;6.50;94.60;;;;;;5052116;28;20022;-79
2022/03/13 02:11:21;;;;;;;18.15;12.38;;;6.50;94.70;;;;;;5041666;28;20037;-81
2022/03/13 02:13:50;;;;;;;23.20;13.80;;;6.50;94.80;;;;;;5034647;28;20017;-79
2022/03/13 02:16:18;;;;;;;20.90;13.80;;;6.50;94.90;;;;;;5043292;28;20058;-79
2022/03/13 02:18:55;;;;;;;21.65;13.75;;;6.50;94.90;;;;;;5049837;28;20054;-81
2022/03/13 02:21:25;;;;;;;25.92;13.55;;;6.40;95.00;;;;;;5040222;28;20062;-81
2022/03/13 02:23:51;;;;;;;24.75;13.45;;;6.40;95.00;;;;;;5051849;28;20040;-80
2022/03/13 02:26:20;;;;;;;25.33;13.70;;;6.40;95.10;;;;;;5049714;28;20029;-80
2022/03/13 02:28:54;;;;;;;22.58;14.07;;;6.40;95.20;;;;;;5047779;28;20025;-81
2022/03/13 02:31:27;;;;;;;21.55;13.65;;;6.40;95.20;;;;;;5047259;28;20063;-79
2022/03/13 02:33:53;;;;;;;21.75;14.13;;;6.40;95.10;;;;;;5025396;28;20064;-78
2022/03/13 02:36:31;;;;;;;23.63;14.77;;;6.40;95.30;;;;;;5024797;28;20065;-79
2022/03/13 02:39:01;;;;;;;22.88;13.93;;;6.50;95.40;;;;;;5036930;28;20096;-80
2022/03/13 02:41:27;;;;;;;24.20;15.23;;;6.50;95.50;;;;;;5053485;28;20037;-80
2022/03/13 02:43:53;;;;;;;23.63;15.15;;;6.50;95.70;;;;;;5055607;28;20029;-80
2022/03/13 02:46:21;;;;;;;22.42;13.85;;;6.50;95.30;;;;;;5055906;28;20089;-80
2022/03/13 02:48:47;;;;;;;21.27;13.55;;;6.50;95.40;;;;;;5058865;28;20071;-80
2022/03/13 02:51:13;;;;;;;24.17;14.65;;;6.50;95.40;;;;;;5046556;28;20049;-79
2022/03/13 02:53:39;;;;;;;26.20;14.57;;;6.50;95.60;;;;;;5030039;28;20054;-78
2022/03/13 02:56:07;;;;;;;24.23;14.60;;;6.50;95.60;;;;;;5046196;28;20025;-79
2022/03/13 02:58:33;;;;;;;25.60;13.75;;;6.50;95.60;;;;;;5052570;28;20134;-79
2022/03/13 03:00:59;;;;;;;23.88;15.10;;;6.50;95.60;;;;;;5057295;28;20033;-80
2022/03/13 03:03:24;;;;;;;25.88;15.52;;;6.70;95.60;;;;;;5061444;28;20033;-78
2022/03/13 03:05:51;;;;;;;25.13;15.70;;;6.50;95.60;;;;;;5051315;28;20029;-79
2022/03/13 03:08:18;;;;;;;23.83;14.25;;;6.50;95.90;;;;;;5051206;28;20040;-78
2022/03/13 03:10:44;;;;;;;22.13;13.52;;;6.50;95.70;;;;;;5046689;28;20033;-80
2022/03/13 03:13:12;;;;;;;23.58;14.73;;;6.50;95.80;;;;;;5053684;28;20212;-80
2022/03/13 03:15:41;;;;;;;24.35;15.02;;;6.50;95.90;;;;;;5044704;28;20062;-80
2022/03/13 03:18:12;;;;;;;24.50;14.48;;;6.40;96.10;;;;;;5037869;28;20044;-80
2022/03/13 03:20:41;;;;;;;26.67;15.48;;;6.40;96.10;;;;;;5059872;28;20081;-79
2022/03/13 03:23:07;;;;;;;26.17;15.60;;;6.40;95.90;;;;;;5051714;28;20053;-79
2022/03/13 03:25:32;;;;;;;22.92;14.63;;;6.40;95.90;;;;;;5061195;28;20053;-80
2022/03/13 03:27:59;;;;;;;22.80;14.30;;;6.40;96.10;;;;;;5052754;28;20040;-80
2022/03/13 03:30:28;;;;;;;26.27;13.85;;;6.40;96.10;;;;;;5056083;28;20073;-79
2022/03/13 03:32:54;;;;;;;22.30;14.60;;;6.40;96.20;;;;;;5056407;28;20046;-80
2022/03/13 03:35:22;;;;;;;25.55;14.88;;;6.30;96.00;;;;;;5051249;28;20097;-81
2022/03/13 03:37:50;;;;;;;21.88;14.70;;;6.30;96.10;;;;;;5060929;28;20052;-80
2022/03/13 03:40:16;;;;;;;25.45;15.10;;;6.30;96.10;;;;;;5033612;28;20025;-80
2022/03/13 03:42:43;;;;;;;26.02;15.10;;;6.30;96.10;;;;;;5037517;28;20049;-80
2022/03/13 03:45:09;;;;;;;23.67;14.00;;;6.30;96.20;;;;;;5058502;28;20077;-80
2022/03/13 03:47:35;;;;;;;26.50;15.40;;;6.30;96.20;;;;;;5046171;28;20056;-81
2022/03/13 03:50:02;;;;;;;25.35;14.95;;;6.20;96.20;;;;;;5055878;28;20034;-81
2022/03/13 03:52:28;;;;;;;25.27;14.55;;;6.20;96.20;;;;;;5049482;28;20036;-80
2022/03/13 03:54:53;;;;;;;22.85;15.15;;;6.20;96.20;;;;;;5049892;28;20018;-80
2022/03/13 03:57:19;;;;;;;25.85;15.07;;;6.20;96.40;;;;;;5025163;28;20043;-81
2022/03/13 03:59:45;;;;;;;20.25;14.02;;;6.10;96.30;;;;;;5047692;28;20033;-79
2022/03/13 04:02:12;;;;;;;23.00;14.25;;;6.10;96.40;;;;;;5047421;28;20054;-79
2022/03/13 04:04:39;;;;;;;22.33;14.80;;;6.10;96.30;;;;;;5045049;28;20037;-79
2022/03/13 04:07:05;;;;;;;23.50;14.45;;;6.10;96.40;;;;;;5045329;28;20037;-80
2022/03/13 04:09:31;;;;;;;22.95;13.50;;;6.00;96.40;;;;;;5056718;28;20045;-80
2022/03/13 04:11:57;;;;;;;27.23;14.25;;;6.50;96.70;;;;;;5056710;28;20028;-80
2022/03/13 04:14:23;;;;;;;25.98;15.38;;;6.00;96.50;;;;;;5052977;28;20026;-81
2022/03/13 04:16:52;;;;;;;22.83;15.02;;;6.30;96.80;;;;;;5058890;28;20061;-81
2022/03/13 04:19:19;;;;;;;26.92;15.32;;;5.90;96.50;;;;;;5029445;28;20034;-79
2022/03/13 04:21:46;;;;;;;23.60;15.38;;;5.90;96.60;;;;;;5059892;28;20029;-78
2022/03/13 04:24:12;;;;;;;24.55;15.18;;;5.80;96.70;;;;;;5024115;28;20044;-79
2022/03/13 04:26:39;;;;;;;24.48;15.05;;;5.70;96.50;;;;;;5057380;28;20092;-79
2022/03/13 04:29:06;;;;;;;25.50;15.57;;;5.70;96.60;;;;;;5049793;28;20025;-79
2022/03/13 04:31:36;;;;;;;26.38;15.63;;;5.70;96.70;;;;;;5038827;28;20069;-80
2022/03/13 04:34:03;;;;;;;28.70;15.60;;;5.60;96.70;;;;;;5036680;28;20025;-81
2022/03/13 04:36:32;;;;;;;25.33;16.27;;;5.60;96.80;;;;;;5057303;28;20022;-80
2022/03/13 04:38:58;;;;;;;24.52;15.77;;;5.60;96.70;;;;;;5045570;28;20022;-81
2022/03/13 04:41:24;;;;;;;24.73;15.82;;;5.50;96.60;;;;;;5034614;28;20030;-81
2022/03/13 04:43:50;;;;;;;25.08;15.88;;;5.50;96.80;;;;;;5048528;28;20072;-79
2022/03/13 04:46:16;;;;;;;21.88;14.70;;;5.50;96.80;;;;;;5040313;28;20081;-81
2022/03/13 04:48:42;;;;;;;28.00;15.02;;;5.50;96.90;;;;;;5046531;28;20022;-79
2022/03/13 04:51:07;;;;;;;23.45;15.00;;;5.50;96.80;;;;;;5040428;28;20025;-80
2022/03/13 04:53:33;;;;;;;25.25;14.23;;;5.50;96.80;;;;;;5040248;28;20057;-79
2022/03/13 04:55:59;;;;;;;21.80;13.88;;;5.50;96.80;;;;;;5031680;28;20056;-80
2022/03/13 04:58:25;;;;;;;23.60;14.52;;;5.50;96.80;;;;;;5042796;28;20018;-79
2022/03/13 05:00:51;;;;;;;27.73;14.90;;;5.60;96.80;;;;;;5047599;28;20106;-80
2022/03/13 05:03:17;;;;;;;23.77;13.98;;;5.50;96.60;;;;;;5053695;28;20029;-80
2022/03/13 05:05:42;;;;;;;23.35;13.85;;;5.50;96.60;;;;;;5053443;28;20033;-80
2022/03/13 05:08:15;;;;;;;24.88;14.32;;;5.50;96.60;;;;;;5043865;28;21408;-80
2022/03/13 05:10:43;;;;;;;24.02;15.18;;;5.50;96.70;;;;;;5057768;28;20044;-79
2022/03/13 05:13:14;;;;;;;22.35;14.27;;;5.50;96.70;;;;;;5058699;28;20066;-81
2022/03/13 05:15:40;;;;;;;28.60;14.35;;;5.50;96.60;;;;;;5040757;28;20101;-80
2022/03/13 05:18:07;;;;;;;25.65;14.05;;;5.50;96.80;;;;;;5056952;28;20041;-80
2022/03/13 05:20:34;;;;;;;25.08;14.95;;;5.50;96.60;;;;;;5057851;28;20053;-80
2022/03/13 05:23:00;;;;;;;22.85;14.05;;;5.50;96.50;;;;;;5047396;28;20060;-80
2022/03/13 05:25:30;;;;;;;22.77;15.65;;;5.40;96.40;;;;;;5049901;28;20021;-80
2022/03/13 05:27:56;;;;;;;21.90;14.52;;;5.40;96.40;;;;;;5051410;28;20085;-80
2022/03/13 05:30:21;;;;;;;22.98;14.68;;;5.40;96.40;;;;;;5056590;28;20040;-80
2022/03/13 05:32:48;;;;;;;23.23;14.52;;;5.40;96.40;;;;;;5054267;28;20040;-81
2022/03/13 05:35:15;;;;;;;24.08;14.55;;;5.30;96.40;;;;;;5026805;28;20027;-81
2022/03/13 05:37:41;;;;;;;22.55;14.20;;;5.30;96.40;;;;;;5032849;28;20026;-80
2022/03/13 05:40:08;;;;;;;27.75;15.43;;;5.30;96.40;;;;;;5035713;28;20044;-80
2022/03/13 05:42:33;;;;;;;23.55;14.75;;;5.30;96.30;;;;;;5055703;28;20021;-79
2022/03/13 05:44:59;;;;;;;22.63;13.45;;;5.30;96.30;;;;;;5057634;28;20093;-79
2022/03/13 05:47:25;;;;;;;21.27;13.18;;;5.30;96.30;;;;;;5029077;28;20053;-81
2022/03/13 05:49:51;;;;;;;21.45;13.65;;;5.90;96.40;;;;;;5043844;28;20037;-80
2022/03/13 05:52:16;;;;;;;23.05;14.13;;;5.30;96.20;;;;;;5029617;28;20096;-82
2022/03/13 05:54:43;;;;;;;24.15;14.02;;;5.30;96.20;;;;;;5047541;28;20029;-81
2022/03/13 05:57:12;;;;;;;21.05;12.95;;;5.40;96.20;;;;;;5044299;28;20034;-81
2022/03/13 05:59:38;;;;;;;19.88;14.02;;;5.50;96.10;;;;;;5013568;28;20073;-82
2022/03/13 06:02:05;;;;;;;22.58;13.95;;;5.40;96.10;;;;;;5045081;28;20024;-81
2022/03/13 06:04:32;;;;;;;20.75;12.98;;;5.40;96.10;;;;;;5054260;28;20034;-81
2022/03/13 06:06:59;;;;;;;22.65;13.85;;;5.40;96.10;;;;;;5047971;28;20108;-80
2022/03/13 06:09:27;;;;;;;23.15;13.80;;;5.40;96.10;;;;;;5048048;28;20017;-80
2022/03/13 06:11:53;;;;;;;24.02;14.10;;;5.40;96.00;;;;;;5045884;28;20026;-80
2022/03/13 06:14:19;;;;;;;21.52;12.77;;;5.40;96.00;;;;;;5039333;28;20045;-81
2022/03/13 06:16:45;;;;;;;26.65;14.02;;;5.50;96.00;;;;;;5021296;28;20105;-81
2022/03/13 06:19:11;;;;;;;19.85;13.55;;;5.40;95.90;;;;;;5052745;28;20044;-81
2022/03/13 06:21:42;;;;;;;21.10;13.43;;;5.40;95.90;;;;;;5052006;28;20040;-81
2022/03/13 06:24:08;;;;;;;21.88;12.85;;;5.50;95.90;;;;;;5046609;28;20022;-81
2022/03/13 06:26:34;;;;;;;21.65;14.63;;;5.50;95.80;;;;;;5044662;28;20049;-80
2022/03/13 06:29:00;;;;;;;23.52;13.48;;;5.50;96.10;;;;;;5045637;28;20072;-81
2022/03/13 06:31:26;;;;;;;21.92;13.70;;;5.50;95.80;;;;;;5049576;28;20085;-80
2022/03/13 06:33:52;;;;;;;20.17;13.35;;;5.50;95.70;;;;;;5030071;28;20045;-81
2022/03/13 06:36:17;;;;;;;19.85;12.55;;;5.50;95.70;;;;;;5057524;28;20025;-80
2022/03/13 06:38:43;;;;;;;21.33;12.95;;;5.50;95.70;;;;;;5051902;28;20028;-81
2022/03/13 06:41:09;;;;;;;20.80;13.15;;;5.50;95.60;;;;;;5046815;28;20053;-81
2022/03/13 06:43:35;;;;;;;19.63;12.38;;;5.50;95.50;;;;;;5034632;28;20024;-81
2022/03/13 06:46:03;;;;;;;18.88;12.27;;;5.50;95.30;;;;;;5040988;28;20030;-81
2022/03/13 06:48:31;;;;;;;20.90;12.65;;;5.50;95.30;;;;;;5043201;28;20026;-81
2022/03/13 06:50:57;;;;;;;23.27;12.07;;;5.50;95.30;;;;;;5023393;28;20108;-78
2022/03/13 06:53:24;;;;;;;20.75;12.30;;;5.50;95.00;;;;;;5020920;28;20047;-79
2022/03/13 06:55:51;;;;;;;20.02;12.63;;;5.50;94.90;;;;;;5038196;28;20037;-80
2022/03/13 06:58:17;;;;;;;19.45;12.50;;;5.50;95.00;;;;;;5048081;28;20068;-78
2022/03/13 07:00:44;;;;;;;20.33;12.50;;;5.50;94.80;;;;;;5016154;28;20060;-80
2022/03/13 07:03:10;;;;;;;21.98;13.45;;;5.50;94.80;;;;;;5052645;28;20136;-80
2022/03/13 07:05:36;;;;;;;18.80;12.13;;;5.50;94.90;;;;;;5050882;28;20040;-79
2022/03/13 07:08:02;;;;;;;19.15;12.38;;;5.50;94.80;;;;;;5053899;28;20049;-80
2022/03/13 07:10:28;;;;;;;22.65;12.82;;;5.60;94.80;;;;;;5053240;28;20021;-80
2022/03/13 07:12:55;;;;;;;18.95;12.18;;;5.60;94.70;;;;;;5056140;28;20029;-80
2022/03/13 07:15:22;;;;;;;18.10;11.70;;;5.60;94.70;;;;;;5024003;28;20038;-79
2022/03/13 07:17:48;;;;;;;19.27;12.63;;;5.60;94.70;;;;;;5046887;28;20080;-79
2022/03/13 07:20:15;;;;;;;21.27;12.82;;;5.60;94.50;;;;;;5047307;28;20026;-80
2022/03/13 07:22:42;;;;;;;20.05;12.27;;;5.60;94.40;;;;;;5031652;28;20030;-81
2022/03/13 07:25:09;;;;;;;18.43;11.27;;;6.70;94.50;;;;;;5024725;28;20042;-81
2022/03/13 07:27:35;;;;;;;19.27;11.85;;;5.70;94.20;;;;;;5053958;28;20291;-80
2022/03/13 07:30:01;;;;;;;18.98;12.05;;;5.70;94.00;;;;;;5020557;28;20018;-79
2022/03/13 07:32:26;;;;;;;20.52;12.90;;;5.70;93.70;;;;;;5044801;28;20057;-81
2022/03/13 07:34:52;;;;;;;20.63;12.52;;;5.40;93.70;;;;;;5025945;28;20037;-81
2022/03/13 07:37:18;;;;;;;22.23;11.60;;;5.80;93.80;;;;;;5047410;28;20030;-80
2022/03/13 07:39:47;;;;;;;20.48;12.45;;;5.80;93.60;;;;;;5051025;28;20030;-80
2022/03/13 07:42:16;;;;;;;20.15;12.60;;;5.90;93.70;;;;;;5053033;28;20089;-80
2022/03/13 07:44:42;;;;;;;22.20;12.50;;;6.00;93.70;;;;;;5041961;28;20017;-80
2022/03/13 07:47:08;;;;;;;22.60;12.40;;;6.10;93.70;;;;;;5009398;28;20056;-80
2022/03/13 07:49:34;;;;;;;19.35;11.75;;;6.20;93.50;;;;;;5041536;28;20029;-81
2022/03/13 07:52:00;;;;;;;18.98;11.23;;;6.20;93.50;;;;;;5035230;28;20029;-80
2022/03/13 07:54:26;;;;;;;22.30;11.82;;;6.30;93.50;;;;;;5051512;28;20079;-80
2022/03/13 07:56:52;;;;;;;19.27;12.10;;;6.40;93.40;;;;;;5057748;28;20053;-80
2022/03/13 07:59:17;;;;;;;19.85;12.35;;;6.50;93.20;;;;;;5056951;28;20037;-78
2022/03/13 08:01:43;;;;;;;19.33;11.68;;;6.60;92.90;;;;;;5056171;28;20057;-81
2022/03/13 08:04:09;;;;;;;15.88;11.20;;;6.70;92.60;;;;;;5052159;28;20053;-80
2022/03/13 08:06:37;;;;;;;16.98;10.63;;;6.90;92.40;;;;;;5042409;28;20029;-80
2022/03/13 08:09:04;;;;;;;17.70;10.93;;;7.00;91.30;;;;;;5029563;28;20025;-79
2022/03/13 08:11:29;;;;;;;22.20;11.38;;;7.10;91.50;;;;;;5051040;28;20061;-79
2022/03/13 08:13:55;;;;;;;23.13;11.50;;;7.10;91.30;;;;;;5045154;28;20018;-81
2022/03/13 08:16:21;;;;;;;17.83;11.30;;;7.20;91.30;;;;;;5023829;28;20089;-81
2022/03/13 08:18:47;;;;;;;16.17;10.93;;;7.40;91.30;;;;;;5056306;28;20053;-80
2022/03/13 08:21:13;;;;;;;20.17;10.68;;;7.50;91.20;;;;;;5039248;28;20037;-81
2022/03/13 08:23:39;;;;;;;15.55;10.80;;;7.70;90.80;;;;;;5033959;28;20034;-78
2022/03/13 08:26:05;;;;;;;17.02;11.13;;;7.90;90.60;;;;;;5033152;28;20056;-80
2022/03/13 08:28:31;;;;;;;20.05;11.05;;;8.10;90.20;;;;;;5024555;28;20045;-78
2022/03/13 08:30:58;;;;;;;19.05;10.80;;;8.30;90.10;;;;;;5028669;28;20053;-81
2022/03/13 08:33:24;;;;;;;15.63;10.57;;;8.40;89.90;;;;;;5046920;28;20083;-81
2022/03/13 08:35:49;;;;;;;15.77;10.48;;;8.50;89.60;;;;;;5044307;28;20041;-80
2022/03/13 08:38:16;;;;;;;17.55;9.70;;;8.60;88.60;;;;;;5044998;28;20041;-80
2022/03/13 08:40:42;;;;;;;18.42;10.98;;;8.80;89.10;;;;;;5013645;28;20042;-81
2022/03/13 08:43:07;;;;;;;17.15;10.40;;;8.80;87.90;;;;;;5030078;28;20032;-81
2022/03/13 08:45:33;;;;;;;18.38;11.13;;;8.90;87.50;;;;;;5051140;28;20444;-80
2022/03/13 08:47:59;;;;;;;20.00;10.23;;;9.00;87.00;;;;;;5037267;28;20041;-81
2022/03/13 08:50:24;;;;;;;17.20;11.25;;;9.10;86.00;;;;;;5043001;28;20843;-80
2022/03/13 08:52:50;;;;;;;17.67;11.20;;;9.20;85.60;;;;;;5035787;28;20065;-81
2022/03/13 08:55:18;;;;;;;17.77;9.80;;;9.30;85.80;;;;;;5052294;28;20034;-81
2022/03/13 08:57:45;;;;;;;16.40;10.57;;;9.40;85.50;;;;;;5057545;28;20033;-81
2022/03/13 09:00:13;;;;;;;14.35;10.50;;;9.60;84.90;;;;;;5056168;28;20100;-81
2022/03/13 09:02:39;;;;;;;18.33;10.25;;;9.80;85.10;;;;;;5055300;28;20041;-81
2022/03/13 09:05:05;;;;;;;14.57;9.77;;;10.10;84.50;;;;;;5050119;28;20072;-81
2022/03/13 09:07:31;;;;;;;17.58;10.43;;;10.20;82.40;;;;;;4995679;28;20052;-80
2022/03/13 09:09:58;;;;;;;19.77;11.30;;;10.20;82.20;;;;;;5036222;28;20037;-80
2022/03/13 09:12:28;;;;;;;17.63;10.73;;;10.00;81.30;;;;;;5052556;28;20052;-81
2022/03/13 09:14:53;;;;;;;19.88;10.77;;;10.00;81.30;;;;;;5049271;28;20037;-80
2022/03/13 09:17:19;;;;;;;13.57;9.52;;;11.00;81.70;;;;;;5044267;28;20081;-82
2022/03/13 09:19:45;;;;;;;14.73;9.88;;;10.20;80.90;;;;;;5024028;28;20049;-83
2022/03/13 09:22:14;;;;;;;17.45;10.75;;;10.20;81.20;;;;;;5025824;28;20045;-81
2022/03/13 09:24:39;;;;;;;17.48;10.25;;;10.40;81.40;;;;;;5040365;28;20068;-81
2022/03/13 09:27:05;;;;;;;18.50;11.02;;;10.50;80.90;;;;;;5045052;28;20041;-80
2022/03/13 09:29:31;;;;;;;19.40;10.60;;;10.60;79.90;;;;;;5038114;28;20102;-78
2022/03/13 09:31:57;;;;;;;18.83;10.43;;;10.70;79.60;;;;;;5034447;28;20033;-78
2022/03/13 09:34:22;;;;;;;17.67;10.23;;;10.90;78.50;;;;;;5022275;28;20046;-79
2022/03/13 09:36:49;;;;;;;14.93;9.98;;;11.10;78.90;;;;;;5043639;28;20069;-80
2022/03/13 09:39:14;;;;;;;22.73;10.02;;;11.30;77.80;;;;;;5014319;28;20049;-78
2022/03/13 09:41:41;;;;;;;15.60;10.25;;;11.40;75.50;;;;;;5020685;28;20068;-78
2022/03/13 09:44:08;;;;;;;17.33;10.00;;;11.60;76.90;;;;;;5036003;28;20050;-79
2022/03/13 09:46:38;;;;;;;16.10;10.38;;;11.90;77.00;;;;;;5055575;28;20037;-80
2022/03/13 09:49:06;;;;;;;18.77;9.55;;;12.10;76.60;;;;;;5043785;28;20113;-80
2022/03/13 09:51:38;;;;;;;13.02;9.48;;;12.40;76.10;;;;;;5046160;28;20052;-80
2022/03/13 09:54:07;;;;;;;15.43;10.38;;;12.60;74.80;;;;;;5024605;28;20041;-79
2022/03/13 09:56:45;;;;;;;15.27;10.13;;;12.80;72.90;;;;;;5030618;28;20053;-79
2022/03/13 09:59:13;;;;;;;14.65;10.30;;;13.10;73.20;;;;;;5037343;28;20063;-80
2022/03/13 10:01:40;;;;;;;19.27;9.98;;;13.10;73.30;;;;;;5027690;28;20049;-79
2022/03/13 10:04:06;;;;;;;18.38;10.18;;;13.30;69.50;;;;;;5032050;28;20061;-82
2022/03/13 10:07:14;;;;;;;17.58;10.68;;;13.50;71.70;;;;;;5031855;28;20052;-81
2022/03/13 10:09:43;;;;;;;13.85;10.05;;;13.70;68.70;;;;;;5016892;28;20049;-80
2022/03/13 10:12:16;;;;;;;17.42;10.00;;;14.00;71.10;;;;;;5015422;28;20094;-81
2022/03/13 10:15:05;;;;;;;15.52;10.00;;;14.30;69.60;;;;;;5033413;28;20084;-79
2022/03/13 10:17:33;;;;;;;16.30;9.80;;;14.60;67.00;;;;;;5047744;28;20053;-81
2022/03/13 10:20:20;;;;;;;13.60;9.65;;;14.90;70.00;;;;;;5021121;28;20034;-80
2022/03/13 10:23:09;;;;;;;17.77;11.43;;;15.30;67.20;;;;;;4993947;28;20111;-81
2022/03/13 10:25:41;;;;;;;14.75;10.65;;;15.70;63.70;;;;;;5022865;28;20134;-81
2022/03/13 10:28:12;;;;;;;15.93;9.98;;;15.40;65.70;;;;;;5017274;28;20069;-80
2022/03/13 10:30:39;;;;;;;16.13;10.25;;;15.60;64.50;;;;;;5030669;28;20427;-80
2022/03/13 10:33:06;;;;;;;16.23;10.50;;;15.90;65.10;;;;;;5035161;28;20048;-78
2022/03/13 10:35:32;;;;;;;14.75;10.50;;;16.00;65.50;;;;;;5040833;28;20049;-80
2022/03/13 10:37:58;;;;;;;14.48;10.02;;;15.90;62.90;;;;;;5024066;28;20049;-79
2022/03/13 10:40:31;;;;;;;17.45;10.75;;;15.90;63.20;;;;;;5029158;28;20052;-80
2022/03/13 10:43:07;;;;;;;15.52;10.77;;;16.00;62.80;;;;;;5025101;28;20056;-82
2022/03/13 10:45:36;;;;;;;14.88;11.02;;;16.20;63.10;;;;;;5005797;28;20021;-80
2022/03/13 10:48:16;;;;;;;13.20;9.80;;;16.60;62.00;;;;;;5043045;28;20049;-80
2022/03/13 10:50:46;;;;;;;16.27;10.48;;;16.60;60.20;;;;;;5022352;28;20045;-79
2022/03/13 10:53:12;;;;;;;17.58;11.40;;;16.80;60.00;;;;;;5050457;28;20050;-80
2022/03/13 10:55:38;;;;;;;13.95;10.25;;;16.80;60.30;;;;;;5052149;28;20037;-79
2022/03/13 10:58:05;;;;;;;16.58;10.27;;;17.00;60.60;;;;;;5049427;28;20044;-79
2022/03/13 11:00:31;;;;;;;15.32;10.75;;;17.90;61.00;;;;;;5017457;28;20049;-80
2022/03/13 11:03:11;;;;;;;13.75;10.80;;;17.40;60.30;;;;;;5015340;28;20405;-82
2022/03/13 11:05:37;;;;;;;18.48;10.43;;;17.80;57.30;;;;;;5026740;28;20532;-82
2022/03/13 11:08:04;;;;;;;16.70;10.60;;;18.20;58.20;;;;;;5017245;28;20120;-77
2022/03/13 11:10:38;;;;;;;14.63;10.13;;;18.20;58.10;;;;;;5031649;28;20053;-79
2022/03/13 11:13:07;;;;;;;18.08;11.70;;;18.40;57.60;;;;;;5053722;28;20045;-81
2022/03/13 11:15:34;;;;;;;14.15;10.90;;;18.40;56.00;;;;;;5005973;28;20508;-79
2022/03/13 11:18:02;;;;;;;18.75;11.88;;;18.60;57.30;;;;;;5033580;28;20051;-81
2022/03/13 11:20:30;;;;;;;19.17;10.65;;;18.70;56.80;;;;;;5020457;28;20042;-81
2022/03/13 11:22:55;;;;;;;17.30;10.95;;;18.90;56.00;;;;;;5027077;28;20114;-80
2022/03/13 11:25:23;;;;;;;18.20;11.02;;;19.10;56.10;;;;;;5015061;28;20042;-79
2022/03/13 11:27:51;;;;;;;17.58;10.80;;;19.10;55.20;;;;;;5028111;28;20042;-80
2022/03/13 11:30:32;;;;;;;21.00;12.07;;;19.30;54.70;;;;;;5021872;28;20090;-80
2022/03/13 11:33:00;;;;;;;20.65;11.90;;;19.40;54.10;;;;;;5025747;28;20042;-80
2022/03/13 11:35:27;;;;;;;;;;;19.60;54.80;;;;;;5023919;28;20045;-83
2022/03/13 11:37:55;;;;;;;14.98;10.20;;;19.30;51.70;;;;;;5015101;28;19922;-79
2022/03/13 11:40:36;;;;;;;18.15;10.82;;;19.50;53.30;;;;;;5008078;28;20044;-81
2022/03/13 11:43:18;;;;;;;15.90;10.98;;;19.80;51.90;;;;;;5009581;28;20390;-81
2022/03/13 11:45:57;;;;;;;17.05;10.68;;;19.10;49.90;;;;;;5013158;28;20042;-80
2022/03/13 11:48:23;;;;;;;14.70;11.00;;;19.30;52.00;;;;;;5001588;28;20022;-79
2022/03/13 11:50:55;;;;;;;12.82;9.60;;;19.60;52.70;;;;;;5031356;28;20048;-79
2022/03/13 11:53:41;;;;;;;16.63;10.70;;;19.60;52.20;;;;;;5025329;28;20090;-79
2022/03/13 11:56:13;;;;;;;14.38;10.75;;;19.60;51.50;;;;;;5015144;28;20057;-80
2022/03/13 11:58:48;;;;;;;12.70;10.05;;;19.50;51.30;;;;;;5014280;28;20053;-79
2022/03/13 12:01:29;;;;;;;13.25;10.60;;;19.70;51.50;;;;;;5023365;28;20069;-79
2022/03/13 12:04:01;;;;;;;20.38;10.70;;;19.80;50.80;;;;;;4996398;28;20065;-79
2022/03/13 12:06:50;;;;;;;17.05;10.48;;;19.40;49.80;;;;;;5010904;28;20046;-81
2022/03/13 12:09:39;;;;;;;20.25;11.30;;;19.50;49.40;;;;;;5007314;28;20050;-78
2022/03/13 12:12:07;;;;;;;16.95;10.90;;;19.40;50.40;;;;;;5011753;28;20072;-79
2022/03/13 12:15:09;;;;;;;14.10;10.10;;;19.60;50.00;;;;;;5016305;28;20080;-78
2022/03/13 12:17:46;;;;;;;13.80;9.40;;;19.70;48.90;;;;;;4962640;29;20055;-78
2022/03/13 12:20:26;;;;;;;11.95;9.38;;;19.80;49.70;;;;;;5019024;28;20050;-78
2022/03/13 12:23:00;;;;;;;14.65;10.70;;;20.00;48.90;;;;;;5024740;28;20120;-79
2022/03/13 12:25:30;;;;;;;15.07;10.13;;;19.80;48.80;;;;;;5011018;28;20133;-78
2022/03/13 12:27:56;;;;;;;13.73;10.60;;;19.70;49.30;;;;;;5012902;28;20401;-78
2022/03/13 12:30:24;;;;;;;11.88;9.73;;;19.40;49.60;;;;;;5009090;28;20461;-78
2022/03/13 12:33:00;;;;;;;14.05;10.15;;;19.40;49.60;;;;;;5019071;28;20053;-77
2022/03/13 12:35:26;;;;;;;15.68;11.07;;;19.60;49.70;;;;;;5016993;28;20135;-79
2022/03/13 12:37:56;;;;;;;14.82;10.63;;;19.20;49.40;;;;;;5005198;28;20389;-77
2022/03/13 12:40:26;;;;;;;16.80;10.77;;;19.40;50.60;;;;;;5019002;28;20034;-80